createdAt,value
2018-04-18T00:02:01.611Z,77.83
2018-04-18T00:07:01.615Z,78.40
2018-04-18T00:18:01.741Z,78.47
2018-04-18T00:23:01.680Z,78.47
2018-04-18T00:28:01.609Z,79.15
2018-04-18T00:33:02.657Z,79.15
2018-04-18T00:38:01.575Z,79.48
2018-04-18T00:43:01.765Z,79.48
2018-04-18T00:48:01.611Z,79.23
2018-04-18T00:58:01.723Z,80.62
2018-04-18T01:03:02.632Z,80.62
2018-04-18T01:08:01.609Z,80.83
2018-04-18T01:13:02.711Z,80.83
2018-04-18T01:18:01.569Z,82.29
2018-04-18T01:23:01.674Z,82.29
2018-04-18T01:28:01.615Z,83.62
2018-04-18T01:33:02.630Z,83.62
2018-04-18T01:38:01.611Z,83.65
2018-04-18T01:48:01.612Z,83.12
2018-04-18T02:03:02.670Z,82.30
2018-04-18T02:08:01.614Z,81.64
2018-04-18T02:18:01.690Z,81.78
2018-04-18T02:23:05.857Z,81.78
2018-04-18T02:28:01.610Z,81.26
2018-04-18T02:38:02.635Z,81.80
2018-04-18T02:53:01.749Z,82.04
2018-04-18T03:08:04.759Z,82.33
2018-04-18T03:23:01.597Z,81.75
2018-04-18T03:28:01.586Z,82.08
2018-04-18T03:38:01.599Z,82.47
2018-04-18T03:48:01.616Z,83.37
2018-04-18T03:58:01.575Z,84.00
2018-04-18T04:03:01.549Z,84.00
2018-04-18T04:08:01.578Z,84.01
2018-04-18T04:13:01.567Z,84.01
2018-04-18T04:18:01.589Z,84.09
2018-04-18T04:23:01.604Z,84.09
2018-04-18T04:28:01.597Z,84.83
2018-04-18T04:43:01.624Z,85.72
2018-04-18T04:58:01.676Z,86.19
2018-04-18T05:03:01.602Z,86.19
2018-04-18T05:08:01.620Z,86.12
2018-04-18T05:13:01.640Z,86.12
2018-04-18T05:18:01.617Z,85.47
2018-04-18T05:23:01.609Z,85.47
2018-04-18T05:28:01.554Z,85.96
2018-04-18T05:33:01.601Z,85.96
2018-04-18T05:38:01.550Z,85.73
2018-04-18T05:43:01.612Z,85.73
2018-04-18T05:48:01.559Z,84.54
2018-04-18T05:53:01.606Z,84.54
2018-04-18T05:58:01.601Z,82.39
2018-04-18T06:03:01.606Z,82.39
2018-04-18T06:08:01.601Z,81.21
2018-04-18T06:13:01.512Z,81.21
2018-04-18T06:18:01.593Z,80.21
2018-04-18T06:23:01.480Z,80.21
2018-04-18T06:28:01.630Z,79.40
2018-04-18T06:33:01.620Z,79.40
2018-04-18T06:38:01.691Z,78.03
2018-04-18T06:43:06.626Z,78.03
2018-04-18T06:48:01.699Z,78.13
2018-04-18T06:53:01.681Z,78.13
2018-04-18T06:58:01.647Z,78.14
2018-04-18T07:03:01.601Z,78.14
2018-04-18T07:08:01.647Z,76.22
2018-04-18T07:13:01.635Z,76.22
2018-04-18T07:18:01.658Z,75.46
2018-04-18T07:24:01.701Z,74.85
2018-04-18T07:29:01.635Z,74.85
2018-04-18T07:34:01.642Z,73.84
2018-04-18T07:39:01.699Z,73.84
2018-04-18T07:44:01.634Z,72.86
2018-04-18T07:49:03.720Z,72.86
2018-04-18T07:54:01.639Z,67.74
2018-04-18T07:59:04.763Z,67.74
2018-04-18T08:04:01.675Z,65.38
2018-04-18T08:09:01.789Z,65.38
2018-04-18T08:14:01.619Z,64.46
2018-04-18T08:19:03.643Z,64.46
2018-04-18T08:24:01.619Z,64.75
2018-04-18T08:29:02.661Z,64.75
2018-04-18T08:34:01.826Z,62.60
2018-04-18T08:39:01.706Z,62.60
2018-04-18T08:44:01.623Z,62.48
2018-04-18T08:59:01.766Z,63.73
2018-04-18T09:04:01.593Z,64.63
2018-04-18T09:09:02.670Z,64.63
2018-04-18T09:19:01.473Z,62.69
2018-04-18T09:24:01.617Z,63.19
2018-04-18T09:29:02.736Z,63.19
2018-04-18T09:34:01.673Z,63.13
2018-04-18T09:39:06.628Z,63.13
2018-04-18T09:44:01.616Z,62.88
2018-04-18T09:49:02.676Z,62.88
2018-04-18T09:54:01.604Z,61.99
2018-04-18T10:00:03.865Z,61.99
2018-04-18T10:10:01.776Z,62.47
2018-04-18T10:15:01.780Z,61.98
2018-04-18T10:25:05.782Z,59.88
2018-04-18T10:30:01.869Z,59.88
2018-04-18T10:35:01.663Z,59.97
2018-04-18T10:40:04.768Z,59.97
2018-04-18T10:45:01.779Z,62.45
2018-04-18T10:50:03.679Z,62.45
2018-04-18T10:55:01.680Z,60.95
2018-04-18T11:00:03.287Z,60.95
2018-04-18T11:05:01.619Z,60.71
2018-04-18T11:10:05.890Z,60.71
2018-04-18T11:15:01.776Z,60.73
2018-04-18T11:30:05.978Z,59.98
2018-04-18T11:35:01.582Z,61.22
2018-04-18T11:40:02.708Z,61.22
2018-04-18T11:45:01.966Z,59.08
2018-04-18T11:50:01.768Z,59.08
2018-04-18T12:00:01.857Z,59.62
2018-04-18T12:05:01.633Z,59.12
2018-04-18T12:15:02.814Z,58.60
2018-04-18T12:20:03.671Z,58.60
2018-04-18T12:25:01.772Z,60.22
2018-04-18T12:30:01.921Z,60.22
2018-04-18T12:35:01.773Z,58.37
2018-04-18T12:51:01.705Z,58.52
2018-04-18T13:01:01.383Z,57.98
2018-04-18T13:06:01.694Z,57.17
2018-04-18T13:16:01.436Z,56.27
2018-04-18T13:21:04.765Z,56.27
2018-04-18T13:26:01.606Z,56.40
2018-04-18T13:36:02.629Z,56.30
2018-04-18T13:41:03.658Z,56.30
2018-04-18T13:57:01.955Z,55.33
2018-04-18T14:02:01.747Z,55.33
2018-04-18T14:07:01.665Z,53.35
2018-04-18T14:12:06.693Z,53.35
2018-04-18T14:27:01.669Z,54.87
2018-04-18T14:32:01.757Z,54.87
2018-04-18T14:37:01.604Z,54.84
2018-04-18T14:52:01.651Z,56.40
2018-04-18T14:57:01.966Z,54.97
2018-04-18T15:12:05.719Z,55.28
2018-04-18T15:18:01.599Z,55.87
2018-04-18T15:28:02.644Z,54.70
2018-04-18T15:38:01.681Z,53.65
2018-04-18T15:48:01.481Z,54.83
2018-04-18T15:58:01.593Z,53.82
2018-04-18T16:03:01.408Z,53.82
2018-04-18T16:08:01.550Z,55.28
2018-04-18T16:13:01.613Z,55.28
2018-04-18T16:18:01.597Z,56.64
2018-04-18T16:23:01.763Z,56.64
2018-04-18T16:28:01.669Z,56.33
2018-04-18T16:38:01.605Z,56.26
2018-04-18T16:43:01.599Z,56.26
2018-04-18T16:48:01.554Z,57.80
2018-04-18T17:03:01.575Z,57.93
2018-04-18T17:08:01.599Z,58.61
2018-04-18T17:13:01.590Z,58.61
2018-04-18T17:18:01.607Z,59.26
2018-04-18T17:28:01.615Z,59.59
2018-04-18T17:33:01.632Z,59.59
2018-04-18T17:38:01.618Z,60.83
2018-04-18T17:43:01.626Z,60.83
2018-04-18T17:48:01.417Z,62.56
2018-04-18T17:53:01.580Z,62.56
2018-04-18T17:58:01.593Z,65.34
2018-04-18T18:03:01.567Z,65.34
2018-04-18T18:08:01.733Z,67.26
2018-04-18T18:13:01.649Z,67.26
2018-04-18T18:18:01.608Z,68.31
2018-04-18T18:23:01.581Z,68.31
2018-04-18T18:28:01.678Z,70.54
2018-04-18T18:33:01.562Z,70.54
2018-04-18T18:38:01.883Z,73.25
2018-04-18T18:43:01.585Z,73.25
2018-04-18T18:48:01.620Z,75.17
2018-04-18T18:53:01.640Z,75.17
2018-04-18T18:59:01.596Z,77.43
2018-04-18T19:04:01.583Z,77.42
2018-04-18T19:09:01.564Z,77.42
2018-04-18T19:14:01.601Z,79.49
2018-04-18T19:19:01.731Z,79.49
2018-04-18T19:24:01.597Z,80.53
2018-04-18T19:29:01.607Z,80.53
2018-04-18T19:34:01.660Z,81.28
2018-04-18T19:39:03.581Z,81.28
2018-04-18T19:44:01.495Z,80.67
2018-04-18T19:54:01.659Z,80.32
2018-04-18T19:59:03.677Z,80.32
2018-04-18T20:04:01.566Z,82.16
2018-04-18T20:09:16.488Z,82.16
2018-04-18T20:14:01.588Z,81.74
2018-04-18T20:19:06.646Z,81.74
2018-04-18T20:24:01.611Z,82.52
2018-04-18T20:29:03.678Z,82.52
2018-04-18T20:35:01.612Z,82.36
2018-04-18T20:45:01.646Z,84.51
2018-04-18T20:50:05.745Z,84.51
2018-04-18T20:55:01.631Z,83.72
2018-04-18T21:00:04.752Z,83.72
2018-04-18T21:05:01.594Z,84.78
2018-04-18T21:10:02.634Z,84.78
2018-04-18T21:15:01.613Z,84.72
2018-04-18T21:20:02.682Z,84.72
2018-04-18T21:25:01.581Z,84.27
2018-04-18T21:30:03.774Z,84.27
2018-04-18T21:35:01.589Z,84.69
2018-04-18T21:40:01.621Z,84.69
2018-04-18T21:45:01.629Z,85.49
2018-04-18T21:56:02.668Z,85.66
2018-04-18T22:06:04.750Z,85.95
2018-04-18T22:16:01.709Z,87.52
2018-04-18T22:26:01.676Z,86.41
2018-04-18T22:36:03.665Z,87.24
2018-04-18T22:46:02.640Z,86.75
2018-04-18T22:51:02.612Z,86.75
2018-04-18T22:56:01.618Z,87.77
2018-04-18T23:01:03.676Z,87.77
2018-04-18T23:06:01.583Z,87.80
2018-04-18T23:11:02.754Z,87.80
2018-04-18T23:16:01.607Z,87.10
2018-04-18T23:26:04.748Z,88.43
2018-04-18T23:36:01.823Z,88.40
2018-04-18T23:51:01.784Z,87.56
2018-04-18T23:56:01.648Z,86.92
